FW4716 Arlington WA US current weather conditions

sailwx.info

Wind from 215 at 0 knots gusting 1

Air temperature 4.4° C
Dewpoint 3.9° C

Last reported at 2019-Nov-14 06:02 UTC.
Time now 2019-Nov-14 06:20 UTC

Location: N 48°16' W 121°54'.
View on Google Maps.

See reports from other nearby stations

  
Tides and Currents Weather Stations Pressure Air Temp Water Temp Dewpoint Dewpoint Depression Visibility Wind Speed Wind Dir Waves Ship Positions
date/time (UTC)wind fromknots sea level pressurealtimeterstation pressurevisibilityair tempwater tempwave heightnotes
2019-Nov-14 06:02 215 0 gusting 1 4.4
2019-Nov-14 05:46 176 5.0
2019-Nov-14 05:31 175 5.0
2019-Nov-14 05:16 182 5.0
2019-Nov-14 05:01 273 5.0
2019-Nov-14 04:46 271 0 gusting 1 5.0
2019-Nov-14 04:31 281 0 gusting 1 5.0
2019-Nov-14 04:16 269 1 gusting 3 5.6
2019-Nov-14 04:01 149 6.1
2019-Nov-14 03:45 245 6.1
2019-Nov-14 03:30 217 0 gusting 2 7.2
2019-Nov-14 03:16 175 0 gusting 2 7.8
2019-Nov-14 03:01 086 2 gusting 6 8.3
2019-Nov-14 02:45 114 2 gusting 6 7.8
2019-Nov-14 02:31 097 2 gusting 6 7.8
2019-Nov-14 02:15 101 1 gusting 3 7.8
2019-Nov-14 02:00 099 0 gusting 2 7.8
2019-Nov-14 01:45 096 1 gusting 3 7.2
2019-Nov-14 01:31 092 2 gusting 5 7.2
2019-Nov-14 01:16 127 8.3
2019-Nov-14 01:01 126 8.3
2019-Nov-14 00:46 078 8.9
2019-Nov-14 00:30 099 0 gusting 4 10.0
2019-Nov-14 00:15 109 2 gusting 6 9.4
2019-Nov-14 00:00 079 1 gusting 3 10.0
2019-Nov-13 23:45 106 1 gusting 3 10.0
2019-Nov-13 23:30 076 1 gusting 2 10.0
2019-Nov-13 23:15 101 0 gusting 2 11.1
2019-Nov-13 23:00 137 0 gusting 2 11.7
2019-Nov-13 22:45 140 0 gusting 3 11.7
2019-Nov-13 22:31 113 1 gusting 3 11.7
2019-Nov-13 22:15 132 0 gusting 2 12.2
2019-Nov-13 22:00 131 2 gusting 6 12.8
2019-Nov-13 21:45 110 1 gusting 3 12.8
2019-Nov-13 21:30 113 0 gusting 3 12.8
2019-Nov-13 21:15 123 1 gusting 3 12.8
2019-Nov-13 21:00 107 1 gusting 6 12.8
2019-Nov-13 20:45 116 5 gusting 7 12.2
2019-Nov-13 20:30 102 5 gusting 7 12.2
2019-Nov-13 20:02 088 5 gusting 7 11.7
2019-Nov-13 19:46 092 5 gusting 8 11.7
2019-Nov-13 19:31 111 5 gusting 7 11.1
2019-Nov-13 19:16 077 4 gusting 7 10.6
2019-Nov-13 19:01 124 4 gusting 6 10.6
2019-Nov-13 18:45 246 10.0
2019-Nov-13 18:33 244 9.4
2019-Nov-13 18:15 244 1 gusting 5 8.9
2019-Nov-13 18:01 257 2 gusting 3 8.9
2019-Nov-13 17:46 156 8.3
2019-Nov-13 17:31 254 8.3
2019-Nov-13 17:15 085 1 gusting 6 8.3
2019-Nov-13 17:00 077 4 gusting 6 8.3
2019-Nov-13 16:46 071 4 gusting 8 7.8
2019-Nov-13 16:31 092 5 gusting 8 7.8
2019-Nov-13 16:15 083 8 gusting 12 7.8
2019-Nov-13 16:00 101 6 gusting 8 7.2
2019-Nov-13 15:45 109 3 gusting 6 6.7
2019-Nov-13 15:31 099 4 gusting 7 6.7
2019-Nov-13 15:16 117 6 gusting 10 7.2
2019-Nov-13 15:00 101 5 gusting 8 6.7
2019-Nov-13 14:45 097 6 gusting 8 6.7
2019-Nov-13 14:30 100 6 gusting 10 7.2
2019-Nov-13 14:15 111 6 gusting 9 7.2
2019-Nov-13 14:00 121 4 gusting 8 7.2
2019-Nov-13 13:45 111 5 gusting 8 7.2
2019-Nov-13 13:30 114 5 gusting 8 7.2
2019-Nov-13 13:15 087 4 gusting 6 7.2
2019-Nov-13 13:00 108 3 gusting 6 7.2
2019-Nov-13 12:45 120 3 gusting 5 7.2
2019-Nov-13 12:30 096 3 gusting 7 7.2
2019-Nov-13 12:17 094 6 gusting 7 7.2
2019-Nov-13 12:02 111 4 gusting 6 7.2
2019-Nov-13 11:47 092 4 gusting 7 7.2
2019-Nov-13 11:32 104 4 gusting 6 7.2
2019-Nov-13 11:17 098 3 gusting 6 7.2
2019-Nov-13 11:01 111 0 gusting 1 7.2
2019-Nov-13 10:46 161 7.2
2019-Nov-13 10:31 252 6.7
2019-Nov-13 10:16 124 0 gusting 1 7.2
2019-Nov-13 10:01 123 7.2
2019-Nov-13 09:46 123 7.8
2019-Nov-13 09:30 123 7.2
2019-Nov-13 09:16 123 7.8
2019-Nov-13 09:01 123 7.8
2019-Nov-13 08:45 123 7.8
2019-Nov-13 08:30 124 8.3
2019-Nov-13 08:15 098 8.3
2019-Nov-13 08:00 092 3 gusting 5 8.3
2019-Nov-13 07:45 097 2 gusting 6 8.3
2019-Nov-13 07:30 131 2 gusting 3 8.3
2019-Nov-13 07:15 105 0 gusting 2 8.3
2019-Nov-13 07:00 100 2 gusting 6 8.3
2019-Nov-13 06:45 096 2 gusting 5 8.3
2019-Nov-13 06:30 084 1 gusting 3 8.3
2019-Nov-13 06:15 089 0 gusting 1 8.3
2019-Nov-13 06:00 089 8.3
2019-Nov-13 05:47 089 8.3
2019-Nov-13 05:31 089 8.3
2019-Nov-13 05:17 089 8.3
2019-Nov-13 05:01 089 8.9
2019-Nov-13 04:47 089 8.9
2019-Nov-13 04:32 089 8.9
2019-Nov-13 04:17 089 0 gusting 1 8.9
2019-Nov-13 04:01 089 8.9
2019-Nov-13 03:46 114 1 gusting 3 8.9
2019-Nov-13 03:31 103 1 gusting 3 8.9
2019-Nov-13 03:17 082 1 gusting 3 8.9
2019-Nov-13 03:01 088 1 gusting 3 8.9
2019-Nov-13 02:46 101 0 gusting 2 8.9
2019-Nov-13 02:32 099 0 gusting 3 8.9
2019-Nov-13 02:16 113 1 gusting 3 8.9
2019-Nov-13 02:01 080 0 gusting 2 8.9
2019-Nov-13 01:46 026 0 gusting 1 8.9
2019-Nov-13 01:32 042 8.9
2019-Nov-13 01:17 042 8.9
2019-Nov-13 01:02 042 8.9
2019-Nov-13 00:47 042 8.9
2019-Nov-13 00:31 042 9.4
2019-Nov-13 00:15 042 9.4
2019-Nov-13 00:02 042 9.4
2019-Nov-12 23:46 042 9.4
2019-Nov-12 23:16 042 9.4
2019-Nov-12 23:01 042 9.4
2019-Nov-12 22:46 042 9.4
2019-Nov-12 22:31 042 9.4
2019-Nov-12 22:15 042 0 gusting 1 9.4
2019-Nov-12 22:00 341 9.4
2019-Nov-12 21:45 341 9.4
2019-Nov-12 21:30 341 9.4
2019-Nov-12 21:16 341 0 gusting 1 9.4
2019-Nov-12 21:00 342 0 gusting 2 9.4
2019-Nov-12 20:45 243 9.4
2019-Nov-12 20:30 277 8.9
2019-Nov-12 20:15 278 8.9
2019-Nov-12 20:00 275 0 gusting 2 8.9
2019-Nov-12 19:45 257 0 gusting 2 8.9
2019-Nov-12 19:30 088 8.9
2019-Nov-12 19:15 081 8.9
2019-Nov-12 19:01 075 1 gusting 5 8.3
2019-Nov-12 18:47 101 2 gusting 4 8.3
2019-Nov-12 18:32 090 1 gusting 3 8.3
2019-Nov-12 18:16 108 1 gusting 2 7.8
2019-Nov-12 18:01 123 0 gusting 3 7.8
2019-Nov-12 17:46 121 1 gusting 3 7.8
2019-Nov-12 17:31 112 1 gusting 2 7.8
2019-Nov-12 17:17 111 1 gusting 5 7.2
2019-Nov-12 17:02 110 1 gusting 3 7.2
2019-Nov-12 16:47 123 1 gusting 3 7.2
2019-Nov-12 16:31 124 0 gusting 2 7.2
2019-Nov-12 16:16 101 2 gusting 5 6.7
2019-Nov-12 16:01 108 2 gusting 3 6.7
2019-Nov-12 15:46 110 0 gusting 3 6.7
2019-Nov-12 15:31 094 1 gusting 2 6.7
2019-Nov-12 15:15 254 6.7
2019-Nov-12 15:01 254 7.2
2019-Nov-12 14:46 254 1 gusting 3 6.7
2019-Nov-12 14:31 126 1 gusting 5 7.2
2019-Nov-12 14:01 083 5 gusting 7 7.2
2019-Nov-12 13:45 118 3 gusting 6 7.2
2019-Nov-12 13:30 104 1 gusting 3 6.7
2019-Nov-12 13:15 128 0 gusting 2 7.2
2019-Nov-12 13:00 238 0 gusting 2 7.2
2019-Nov-12 12:45 115 0 gusting 1 7.2
2019-Nov-12 12:31 080 0 gusting 2 7.2
2019-Nov-12 12:15 261 7.2
2019-Nov-12 12:01 171 0 gusting 6 7.8
2019-Nov-12 11:46 106 2 gusting 5 7.2
2019-Nov-12 11:30 107 0 gusting 2 7.8
2019-Nov-12 11:15 114 7.8
2019-Nov-12 11:00 101 0 gusting 2 7.2
2019-Nov-12 10:45 101 1 gusting 2 7.8
2019-Nov-12 10:30 209 7.8
2019-Nov-12 10:15 230 7.8
2019-Nov-12 10:00 137 7.8
2019-Nov-12 09:45 137 0 gusting 2 7.8
2019-Nov-12 09:30 223 0 gusting 2 7.8
2019-Nov-12 09:15 259 1 gusting 2 7.8
2019-Nov-12 09:02 106 0 gusting 2 7.8
2019-Nov-12 08:46 142 0 gusting 1 7.8
2019-Nov-12 08:32 211 8.3
2019-Nov-12 08:16 211 7.8
2019-Nov-12 08:02 217 0 gusting 2 7.8
2019-Nov-12 07:46 310 8.3
2019-Nov-12 07:31 254 0 gusting 1 8.3
2019-Nov-12 07:16 254 0 gusting 1 7.8
2019-Nov-12 06:47 221 8.3
2019-Nov-12 06:31 111 0 gusting 1 8.9
2019-Nov-12 06:16 111 0 gusting 3 8.9
2019-Nov-12 06:01 075 1 gusting 3 8.9